sensor_id;sensor_type;location;lat;lon;timestamp;P1;durP1;ratioP1;P2;durP2;ratioP2
47531;SDS011;33273;52.254;7.988;2022-10-17T00:02:03;11.63;;;9.98;;
47531;SDS011;33273;52.254;7.988;2022-10-17T00:04:29;17.75;;;10.82;;
47531;SDS011;33273;52.254;7.988;2022-10-17T00:06:57;11.13;;;9.43;;
47531;SDS011;33273;52.254;7.988;2022-10-17T00:09:22;10.97;;;9.10;;
47531;SDS011;33273;52.254;7.988;2022-10-17T00:11:53;12.52;;;9.50;;
47531;SDS011;33273;52.254;7.988;2022-10-17T00:14:19;12.60;;;9.48;;
47531;SDS011;33273;52.254;7.988;2022-10-17T00:16:46;12.95;;;10.32;;
47531;SDS011;33273;52.254;7.988;2022-10-17T00:19:11;13.20;;;9.40;;
47531;SDS011;33273;52.254;7.988;2022-10-17T00:21:39;13.18;;;8.82;;
47531;SDS011;33273;52.254;7.988;2022-10-17T00:24:05;11.50;;;9.77;;
47531;SDS011;33273;52.254;7.988;2022-10-17T00:26:32;10.00;;;8.85;;
47531;SDS011;33273;52.254;7.988;2022-10-17T00:28:58;13.48;;;9.13;;
47531;SDS011;33273;52.254;7.988;2022-10-17T00:31:24;13.63;;;8.90;;
47531;SDS011;33273;52.254;7.988;2022-10-17T00:33:51;14.23;;;9.68;;
47531;SDS011;33273;52.254;7.988;2022-10-17T00:36:21;11.20;;;9.02;;
47531;SDS011;33273;52.254;7.988;2022-10-17T00:38:50;13.32;;;9.32;;
47531;SDS011;33273;52.254;7.988;2022-10-17T00:41:23;11.95;;;8.90;;
47531;SDS011;33273;52.254;7.988;2022-10-17T00:46:39;11.20;;;7.85;;
47531;SDS011;33273;52.254;7.988;2022-10-17T00:49:08;10.32;;;7.78;;
47531;SDS011;33273;52.254;7.988;2022-10-17T00:54:05;11.43;;;8.15;;
47531;SDS011;33273;52.254;7.988;2022-10-17T00:56:33;13.32;;;8.70;;
47531;SDS011;33273;52.254;7.988;2022-10-17T00:58:59;11.05;;;8.45;;
47531;SDS011;33273;52.254;7.988;2022-10-17T01:01:27;10.63;;;8.77;;
47531;SDS011;33273;52.254;7.988;2022-10-17T01:03:53;14.30;;;9.55;;
47531;SDS011;33273;52.254;7.988;2022-10-17T01:06:19;11.57;;;8.80;;
47531;SDS011;33273;52.254;7.988;2022-10-17T01:08:45;12.93;;;8.63;;
47531;SDS011;33273;52.254;7.988;2022-10-17T01:11:31;12.93;;;8.80;;
47531;SDS011;33273;52.254;7.988;2022-10-17T01:24:40;13.43;;;8.80;;
47531;SDS011;33273;52.254;7.988;2022-10-17T01:40:41;11.82;;;9.60;;
47531;SDS011;33273;52.254;7.988;2022-10-17T01:43:38;11.02;;;9.13;;
47531;SDS011;33273;52.254;7.988;2022-10-17T01:49:08;14.93;;;9.15;;
47531;SDS011;33273;52.254;7.988;2022-10-17T01:51:44;11.98;;;9.57;;
47531;SDS011;33273;52.254;7.988;2022-10-17T01:57:08;11.77;;;9.43;;
47531;SDS011;33273;52.254;7.988;2022-10-17T01:59:41;15.00;;;9.57;;
47531;SDS011;33273;52.254;7.988;2022-10-17T02:02:11;11.75;;;9.55;;
47531;SDS011;33273;52.254;7.988;2022-10-17T02:04:40;11.18;;;9.10;;
47531;SDS011;33273;52.254;7.988;2022-10-17T02:07:07;13.50;;;9.55;;
47531;SDS011;33273;52.254;7.988;2022-10-17T02:09:34;13.15;;;9.02;;
47531;SDS011;33273;52.254;7.988;2022-10-17T02:15:05;12.00;;;10.35;;
47531;SDS011;33273;52.254;7.988;2022-10-17T02:23:37;11.77;;;9.82;;
47531;SDS011;33273;52.254;7.988;2022-10-17T02:26:09;13.00;;;9.68;;
47531;SDS011;33273;52.254;7.988;2022-10-17T02:31:28;11.85;;;10.63;;
47531;SDS011;33273;52.254;7.988;2022-10-17T02:34:02;13.07;;;9.27;;
47531;SDS011;33273;52.254;7.988;2022-10-17T02:36:40;14.05;;;10.43;;
47531;SDS011;33273;52.254;7.988;2022-10-17T02:39:10;12.93;;;9.90;;
47531;SDS011;33273;52.254;7.988;2022-10-17T02:41:39;12.50;;;10.27;;
47531;SDS011;33273;52.254;7.988;2022-10-17T02:44:07;12.73;;;9.35;;
47531;SDS011;33273;52.254;7.988;2022-10-17T02:46:34;12.45;;;9.32;;
47531;SDS011;33273;52.254;7.988;2022-10-17T02:49:05;13.15;;;9.35;;
47531;SDS011;33273;52.254;7.988;2022-10-17T02:51:44;12.23;;;9.70;;
47531;SDS011;33273;52.254;7.988;2022-10-17T03:00:02;12.98;;;9.00;;
47531;SDS011;33273;52.254;7.988;2022-10-17T03:02:44;12.15;;;8.55;;
47531;SDS011;33273;52.254;7.988;2022-10-17T03:05:22;11.13;;;8.25;;
47531;SDS011;33273;52.254;7.988;2022-10-17T03:07:50;16.92;;;9.80;;
47531;SDS011;33273;52.254;7.988;2022-10-17T03:10:17;12.90;;;8.88;;
47531;SDS011;33273;52.254;7.988;2022-10-17T03:12:45;12.15;;;9.05;;
47531;SDS011;33273;52.254;7.988;2022-10-17T03:15:12;11.38;;;8.93;;
47531;SDS011;33273;52.254;7.988;2022-10-17T03:20:06;14.23;;;8.77;;
47531;SDS011;33273;52.254;7.988;2022-10-17T03:22:33;12.75;;;9.80;;
47531;SDS011;33273;52.254;7.988;2022-10-17T03:25:00;13.98;;;9.93;;
47531;SDS011;33273;52.254;7.988;2022-10-17T03:27:27;12.48;;;10.00;;
47531;SDS011;33273;52.254;7.988;2022-10-17T03:29:53;12.18;;;9.95;;
47531;SDS011;33273;52.254;7.988;2022-10-17T03:32:19;11.82;;;9.50;;
47531;SDS011;33273;52.254;7.988;2022-10-17T03:34:47;11.88;;;9.45;;
47531;SDS011;33273;52.254;7.988;2022-10-17T03:37:13;13.60;;;8.00;;
47531;SDS011;33273;52.254;7.988;2022-10-17T03:39:40;11.95;;;9.60;;
47531;SDS011;33273;52.254;7.988;2022-10-17T03:42:05;13.47;;;9.57;;
47531;SDS011;33273;52.254;7.988;2022-10-17T03:44:31;10.68;;;8.93;;
47531;SDS011;33273;52.254;7.988;2022-10-17T03:46:58;15.20;;;9.75;;
47531;SDS011;33273;52.254;7.988;2022-10-17T03:49:24;16.17;;;9.68;;
47531;SDS011;33273;52.254;7.988;2022-10-17T03:51:50;13.80;;;10.20;;
47531;SDS011;33273;52.254;7.988;2022-10-17T03:54:17;13.18;;;8.82;;
47531;SDS011;33273;52.254;7.988;2022-10-17T03:59:15;15.18;;;8.43;;
47531;SDS011;33273;52.254;7.988;2022-10-17T04:01:48;13.60;;;9.45;;
47531;SDS011;33273;52.254;7.988;2022-10-17T04:04:14;10.65;;;8.63;;
47531;SDS011;33273;52.254;7.988;2022-10-17T04:06:40;12.10;;;8.00;;
47531;SDS011;33273;52.254;7.988;2022-10-17T04:09:09;12.48;;;7.68;;
47531;SDS011;33273;52.254;7.988;2022-10-17T04:11:45;12.02;;;8.23;;
47531;SDS011;33273;52.254;7.988;2022-10-17T04:14:11;12.47;;;7.60;;
47531;SDS011;33273;52.254;7.988;2022-10-17T04:16:38;13.18;;;8.60;;
47531;SDS011;33273;52.254;7.988;2022-10-17T04:19:13;10.55;;;7.55;;
47531;SDS011;33273;52.254;7.988;2022-10-17T04:21:43;9.50;;;7.55;;
47531;SDS011;33273;52.254;7.988;2022-10-17T04:24:09;8.93;;;6.90;;
47531;SDS011;33273;52.254;7.988;2022-10-17T04:26:43;11.85;;;7.90;;
47531;SDS011;33273;52.254;7.988;2022-10-17T04:29:09;11.13;;;7.30;;
47531;SDS011;33273;52.254;7.988;2022-10-17T04:31:36;11.13;;;7.20;;
47531;SDS011;33273;52.254;7.988;2022-10-17T04:34:31;8.43;;;6.55;;
47531;SDS011;33273;52.254;7.988;2022-10-17T04:36:57;9.98;;;7.20;;
47531;SDS011;33273;52.254;7.988;2022-10-17T04:39:23;9.90;;;7.40;;
47531;SDS011;33273;52.254;7.988;2022-10-17T04:41:49;9.15;;;6.80;;
47531;SDS011;33273;52.254;7.988;2022-10-17T04:44:15;9.93;;;7.17;;
47531;SDS011;33273;52.254;7.988;2022-10-17T04:46:47;14.25;;;7.47;;
47531;SDS011;33273;52.254;7.988;2022-10-17T04:49:13;11.38;;;7.82;;
47531;SDS011;33273;52.254;7.988;2022-10-17T04:51:42;10.32;;;6.93;;
47531;SDS011;33273;52.254;7.988;2022-10-17T04:54:12;13.10;;;7.50;;
47531;SDS011;33273;52.254;7.988;2022-10-17T04:56:43;8.73;;;6.68;;
47531;SDS011;33273;52.254;7.988;2022-10-17T04:59:09;10.77;;;7.43;;
47531;SDS011;33273;52.254;7.988;2022-10-17T05:01:37;9.90;;;6.45;;
47531;SDS011;33273;52.254;7.988;2022-10-17T05:04:03;9.53;;;6.93;;
47531;SDS011;33273;52.254;7.988;2022-10-17T05:06:29;8.15;;;6.63;;
47531;SDS011;33273;52.254;7.988;2022-10-17T05:09:29;8.93;;;7.10;;
47531;SDS011;33273;52.254;7.988;2022-10-17T05:11:55;11.13;;;7.43;;
47531;SDS011;33273;52.254;7.988;2022-10-17T05:14:21;9.00;;;6.47;;
47531;SDS011;33273;52.254;7.988;2022-10-17T05:19:14;10.20;;;6.70;;
47531;SDS011;33273;52.254;7.988;2022-10-17T05:21:44;10.35;;;6.88;;
47531;SDS011;33273;52.254;7.988;2022-10-17T05:24:12;7.35;;;6.18;;
47531;SDS011;33273;52.254;7.988;2022-10-17T05:26:39;11.55;;;6.72;;
47531;SDS011;33273;52.254;7.988;2022-10-17T05:29:05;11.87;;;6.33;;
47531;SDS011;33273;52.254;7.988;2022-10-17T05:31:38;13.25;;;6.03;;
47531;SDS011;33273;52.254;7.988;2022-10-17T05:34:06;11.27;;;6.75;;
47531;SDS011;33273;52.254;7.988;2022-10-17T05:39:02;8.93;;;6.07;;
47531;SDS011;33273;52.254;7.988;2022-10-17T05:41:31;10.07;;;6.13;;
47531;SDS011;33273;52.254;7.988;2022-10-17T05:43:59;7.82;;;5.60;;
47531;SDS011;33273;52.254;7.988;2022-10-17T05:46:40;11.90;;;6.47;;
47531;SDS011;33273;52.254;7.988;2022-10-17T05:49:08;9.20;;;5.88;;
47531;SDS011;33273;52.254;7.988;2022-10-17T05:51:35;9.05;;;5.88;;
47531;SDS011;33273;52.254;7.988;2022-10-17T05:54:04;11.07;;;5.95;;
47531;SDS011;33273;52.254;7.988;2022-10-17T05:56:38;7.70;;;6.05;;
47531;SDS011;33273;52.254;7.988;2022-10-17T05:59:05;8.27;;;5.43;;
47531;SDS011;33273;52.254;7.988;2022-10-17T06:01:58;8.10;;;6.07;;
47531;SDS011;33273;52.254;7.988;2022-10-17T06:04:24;7.70;;;6.07;;
47531;SDS011;33273;52.254;7.988;2022-10-17T06:06:53;8.00;;;5.60;;
47531;SDS011;33273;52.254;7.988;2022-10-17T06:11:50;9.15;;;5.70;;
47531;SDS011;33273;52.254;7.988;2022-10-17T06:14:16;8.73;;;6.13;;
47531;SDS011;33273;52.254;7.988;2022-10-17T06:16:43;12.00;;;6.50;;
47531;SDS011;33273;52.254;7.988;2022-10-17T06:19:10;10.38;;;5.55;;
47531;SDS011;33273;52.254;7.988;2022-10-17T06:21:36;8.27;;;5.05;;
47531;SDS011;33273;52.254;7.988;2022-10-17T06:24:12;7.72;;;5.57;;
47531;SDS011;33273;52.254;7.988;2022-10-17T06:26:40;8.27;;;5.35;;
47531;SDS011;33273;52.254;7.988;2022-10-17T06:29:07;8.57;;;5.07;;
47531;SDS011;33273;52.254;7.988;2022-10-17T06:31:40;8.88;;;5.30;;
47531;SDS011;33273;52.254;7.988;2022-10-17T06:34:06;13.70;;;6.25;;
47531;SDS011;33273;52.254;7.988;2022-10-17T06:36:31;7.70;;;5.45;;
47531;SDS011;33273;52.254;7.988;2022-10-17T06:38:57;8.65;;;5.20;;
47531;SDS011;33273;52.254;7.988;2022-10-17T06:41:32;10.98;;;5.70;;
47531;SDS011;33273;52.254;7.988;2022-10-17T06:44:03;6.95;;;5.57;;
47531;SDS011;33273;52.254;7.988;2022-10-17T06:47:00;9.80;;;5.55;;
47531;SDS011;33273;52.254;7.988;2022-10-17T06:49:26;7.18;;;4.90;;
47531;SDS011;33273;52.254;7.988;2022-10-17T06:51:59;7.82;;;5.18;;
47531;SDS011;33273;52.254;7.988;2022-10-17T06:54:34;10.60;;;5.00;;
47531;SDS011;33273;52.254;7.988;2022-10-17T06:57:26;8.18;;;5.13;;
47531;SDS011;33273;52.254;7.988;2022-10-17T07:00:07;8.15;;;5.10;;
47531;SDS011;33273;52.254;7.988;2022-10-17T07:02:41;9.02;;;5.00;;
47531;SDS011;33273;52.254;7.988;2022-10-17T07:05:08;7.50;;;4.93;;
47531;SDS011;33273;52.254;7.988;2022-10-17T07:07:34;6.38;;;4.93;;
47531;SDS011;33273;52.254;7.988;2022-10-17T07:10:02;7.65;;;5.07;;
47531;SDS011;33273;52.254;7.988;2022-10-17T07:12:34;6.68;;;4.43;;
47531;SDS011;33273;52.254;7.988;2022-10-17T07:15:02;8.75;;;4.80;;
47531;SDS011;33273;52.254;7.988;2022-10-17T07:17:30;9.13;;;5.90;;
47531;SDS011;33273;52.254;7.988;2022-10-17T07:19:56;8.15;;;5.18;;
47531;SDS011;33273;52.254;7.988;2022-10-17T07:22:24;10.15;;;5.00;;
47531;SDS011;33273;52.254;7.988;2022-10-17T07:24:54;8.77;;;4.80;;
47531;SDS011;33273;52.254;7.988;2022-10-17T07:27:43;8.60;;;5.05;;
47531;SDS011;33273;52.254;7.988;2022-10-17T07:30:09;8.68;;;4.63;;
47531;SDS011;33273;52.254;7.988;2022-10-17T07:32:38;8.77;;;4.60;;
47531;SDS011;33273;52.254;7.988;2022-10-17T07:35:06;11.38;;;4.63;;
47531;SDS011;33273;52.254;7.988;2022-10-17T07:37:34;5.90;;;4.20;;
47531;SDS011;33273;52.254;7.988;2022-10-17T07:40:00;8.43;;;4.60;;
47531;SDS011;33273;52.254;7.988;2022-10-17T07:42:27;6.75;;;4.40;;
47531;SDS011;33273;52.254;7.988;2022-10-17T07:44:54;9.27;;;4.45;;
47531;SDS011;33273;52.254;7.988;2022-10-17T07:47:21;8.80;;;4.57;;
47531;SDS011;33273;52.254;7.988;2022-10-17T07:49:48;7.47;;;4.55;;
47531;SDS011;33273;52.254;7.988;2022-10-17T07:52:14;8.38;;;4.40;;
47531;SDS011;33273;52.254;7.988;2022-10-17T07:54:44;9.52;;;4.95;;
47531;SDS011;33273;52.254;7.988;2022-10-17T07:57:10;6.97;;;4.22;;
47531;SDS011;33273;52.254;7.988;2022-10-17T07:59:36;8.07;;;4.60;;
47531;SDS011;33273;52.254;7.988;2022-10-17T08:04:32;8.07;;;4.90;;
47531;SDS011;33273;52.254;7.988;2022-10-17T08:09:24;6.80;;;4.25;;
47531;SDS011;33273;52.254;7.988;2022-10-17T08:11:50;8.55;;;4.88;;
47531;SDS011;33273;52.254;7.988;2022-10-17T08:14:18;7.75;;;5.20;;
47531;SDS011;33273;52.254;7.988;2022-10-17T08:16:45;10.00;;;4.60;;
47531;SDS011;33273;52.254;7.988;2022-10-17T08:19:11;10.68;;;5.32;;
47531;SDS011;33273;52.254;7.988;2022-10-17T08:21:38;6.75;;;4.68;;
47531;SDS011;33273;52.254;7.988;2022-10-17T08:24:05;10.10;;;4.97;;
47531;SDS011;33273;52.254;7.988;2022-10-17T08:26:31;6.15;;;4.72;;
47531;SDS011;33273;52.254;7.988;2022-10-17T08:28:57;9.27;;;4.97;;
47531;SDS011;33273;52.254;7.988;2022-10-17T08:31:23;14.82;;;5.43;;
47531;SDS011;33273;52.254;7.988;2022-10-17T08:33:49;8.23;;;5.43;;
47531;SDS011;33273;52.254;7.988;2022-10-17T08:36:17;7.47;;;4.30;;
47531;SDS011;33273;52.254;7.988;2022-10-17T08:38:44;6.97;;;4.07;;
47531;SDS011;33273;52.254;7.988;2022-10-17T08:41:18;9.25;;;4.75;;
47531;SDS011;33273;52.254;7.988;2022-10-17T08:44:07;8.98;;;5.07;;
47531;SDS011;33273;52.254;7.988;2022-10-17T08:46:58;8.93;;;5.07;;
47531;SDS011;33273;52.254;7.988;2022-10-17T08:52:20;9.07;;;4.65;;
47531;SDS011;33273;52.254;7.988;2022-10-17T08:54:49;7.20;;;4.85;;
47531;SDS011;33273;52.254;7.988;2022-10-17T08:57:17;10.20;;;4.72;;
47531;SDS011;33273;52.254;7.988;2022-10-17T08:59:44;7.63;;;4.15;;
47531;SDS011;33273;52.254;7.988;2022-10-17T09:02:20;8.93;;;3.97;;
47531;SDS011;33273;52.254;7.988;2022-10-17T09:10:50;7.53;;;4.43;;
47531;SDS011;33273;52.254;7.988;2022-10-17T09:19:10;8.20;;;4.22;;
47531;SDS011;33273;52.254;7.988;2022-10-17T09:25:33;6.30;;;4.22;;
47531;SDS011;33273;52.254;7.988;2022-10-17T09:27:51;7.35;;;3.90;;
47531;SDS011;33273;52.254;7.988;2022-10-17T09:33:08;8.18;;;4.97;;
47531;SDS011;33273;52.254;7.988;2022-10-17T09:35:40;7.10;;;4.45;;
47531;SDS011;33273;52.254;7.988;2022-10-17T09:38:11;7.05;;;4.53;;
47531;SDS011;33273;52.254;7.988;2022-10-17T09:40:41;6.90;;;4.22;;
47531;SDS011;33273;52.254;7.988;2022-10-17T09:43:10;8.00;;;5.13;;
47531;SDS011;33273;52.254;7.988;2022-10-17T09:45:44;7.50;;;4.40;;
47531;SDS011;33273;52.254;7.988;2022-10-17T09:48:22;6.40;;;4.75;;
47531;SDS011;33273;52.254;7.988;2022-10-17T09:50:54;11.95;;;4.95;;
47531;SDS011;33273;52.254;7.988;2022-10-17T09:53:22;10.07;;;4.57;;
47531;SDS011;33273;52.254;7.988;2022-10-17T09:55:54;6.18;;;4.38;;
47531;SDS011;33273;52.254;7.988;2022-10-17T09:58:23;9.00;;;4.43;;
47531;SDS011;33273;52.254;7.988;2022-10-17T10:01:24;7.45;;;4.72;;
47531;SDS011;33273;52.254;7.988;2022-10-17T10:04:15;10.77;;;4.28;;
47531;SDS011;33273;52.254;7.988;2022-10-17T10:09:32;9.68;;;4.03;;
47531;SDS011;33273;52.254;7.988;2022-10-17T10:12:02;6.57;;;4.05;;
47531;SDS011;33273;52.254;7.988;2022-10-17T10:14:35;6.65;;;4.00;;
47531;SDS011;33273;52.254;7.988;2022-10-17T10:17:04;8.27;;;4.60;;
47531;SDS011;33273;52.254;7.988;2022-10-17T10:19:52;7.05;;;4.32;;
47531;SDS011;33273;52.254;7.988;2022-10-17T10:22:19;8.57;;;4.32;;
47531;SDS011;33273;52.254;7.988;2022-10-17T10:30:01;8.02;;;4.03;;
47531;SDS011;33273;52.254;7.988;2022-10-17T10:34:57;9.27;;;4.82;;
47531;SDS011;33273;52.254;7.988;2022-10-17T10:37:57;10.18;;;4.35;;
47531;SDS011;33273;52.254;7.988;2022-10-17T10:42:51;5.82;;;3.95;;
47531;SDS011;33273;52.254;7.988;2022-10-17T10:45:20;5.97;;;4.43;;
47531;SDS011;33273;52.254;7.988;2022-10-17T10:56:04;9.60;;;4.13;;
47531;SDS011;33273;52.254;7.988;2022-10-17T11:04:41;8.82;;;3.80;;
47531;SDS011;33273;52.254;7.988;2022-10-17T11:07:16;6.68;;;3.95;;
47531;SDS011;33273;52.254;7.988;2022-10-17T11:12:38;6.85;;;4.13;;
47531;SDS011;33273;52.254;7.988;2022-10-17T11:15:35;9.20;;;5.13;;
47531;SDS011;33273;52.254;7.988;2022-10-17T11:23:50;8.60;;;4.00;;
47531;SDS011;33273;52.254;7.988;2022-10-17T11:26:23;11.18;;;4.57;;
47531;SDS011;33273;52.254;7.988;2022-10-17T11:28:52;6.75;;;4.43;;
47531;SDS011;33273;52.254;7.988;2022-10-17T11:31:21;8.13;;;4.18;;
47531;SDS011;33273;52.254;7.988;2022-10-17T11:36:24;11.38;;;5.57;;
47531;SDS011;33273;52.254;7.988;2022-10-17T11:38:59;6.80;;;3.90;;
47531;SDS011;33273;52.254;7.988;2022-10-17T11:44:07;6.55;;;5.03;;
47531;SDS011;33273;52.254;7.988;2022-10-17T11:46:59;7.60;;;5.10;;
47531;SDS011;33273;52.254;7.988;2022-10-17T11:49:45;6.28;;;4.82;;
47531;SDS011;33273;52.254;7.988;2022-10-17T11:55:34;7.97;;;5.90;;
47531;SDS011;33273;52.254;7.988;2022-10-17T12:01:08;6.82;;;5.50;;
47531;SDS011;33273;52.254;7.988;2022-10-17T12:12:27;10.00;;;5.97;;
47531;SDS011;33273;52.254;7.988;2022-10-17T12:15:39;8.23;;;5.75;;
47531;SDS011;33273;52.254;7.988;2022-10-17T12:18:07;10.02;;;5.18;;
47531;SDS011;33273;52.254;7.988;2022-10-17T12:20:41;8.25;;;5.20;;
47531;SDS011;33273;52.254;7.988;2022-10-17T12:25:46;7.80;;;5.45;;
47531;SDS011;33273;52.254;7.988;2022-10-17T12:28:46;7.72;;;5.38;;
47531;SDS011;33273;52.254;7.988;2022-10-17T12:46:55;9.70;;;6.40;;
47531;SDS011;33273;52.254;7.988;2022-10-17T13:03:20;8.45;;;6.00;;
47531;SDS011;33273;52.254;7.988;2022-10-17T13:05:53;11.20;;;6.75;;
47531;SDS011;33273;52.254;7.988;2022-10-17T13:08:24;11.02;;;6.03;;
47531;SDS011;33273;52.254;7.988;2022-10-17T13:11:01;9.18;;;6.97;;
47531;SDS011;33273;52.254;7.988;2022-10-17T13:13:47;8.90;;;6.00;;
47531;SDS011;33273;52.254;7.988;2022-10-17T13:18:53;10.35;;;6.85;;
47531;SDS011;33273;52.254;7.988;2022-10-17T13:21:19;10.57;;;6.18;;
47531;SDS011;33273;52.254;7.988;2022-10-17T13:26:22;13.85;;;5.90;;
47531;SDS011;33273;52.254;7.988;2022-10-17T13:29:02;9.27;;;5.72;;
47531;SDS011;33273;52.254;7.988;2022-10-17T13:31:34;8.55;;;5.07;;
47531;SDS011;33273;52.254;7.988;2022-10-17T13:34:03;8.63;;;5.70;;
47531;SDS011;33273;52.254;7.988;2022-10-17T13:36:30;9.50;;;6.07;;
47531;SDS011;33273;52.254;7.988;2022-10-17T13:39:03;8.38;;;5.53;;
47531;SDS011;33273;52.254;7.988;2022-10-17T13:41:31;10.60;;;6.32;;
47531;SDS011;33273;52.254;7.988;2022-10-17T13:43:59;10.70;;;5.18;;
47531;SDS011;33273;52.254;7.988;2022-10-17T13:46:28;8.30;;;5.10;;
47531;SDS011;33273;52.254;7.988;2022-10-17T13:48:56;11.98;;;6.32;;
47531;SDS011;33273;52.254;7.988;2022-10-17T13:51:24;8.10;;;5.25;;
47531;SDS011;33273;52.254;7.988;2022-10-17T13:53:51;10.90;;;5.47;;
47531;SDS011;33273;52.254;7.988;2022-10-17T13:56:20;9.05;;;5.40;;
47531;SDS011;33273;52.254;7.988;2022-10-17T13:58:51;10.68;;;6.10;;
47531;SDS011;33273;52.254;7.988;2022-10-17T14:01:20;7.45;;;5.18;;
47531;SDS011;33273;52.254;7.988;2022-10-17T14:06:19;13.52;;;5.53;;
47531;SDS011;33273;52.254;7.988;2022-10-17T14:09:00;9.50;;;5.05;;
47531;SDS011;33273;52.254;7.988;2022-10-17T14:11:38;6.68;;;5.00;;
47531;SDS011;33273;52.254;7.988;2022-10-17T14:14:16;8.32;;;5.50;;
47531;SDS011;33273;52.254;7.988;2022-10-17T14:16:46;8.15;;;5.32;;
47531;SDS011;33273;52.254;7.988;2022-10-17T14:19:20;9.85;;;5.75;;
47531;SDS011;33273;52.254;7.988;2022-10-17T14:21:55;9.38;;;6.13;;
47531;SDS011;33273;52.254;7.988;2022-10-17T14:24:58;7.90;;;5.72;;
47531;SDS011;33273;52.254;7.988;2022-10-17T14:27:26;9.63;;;5.55;;
47531;SDS011;33273;52.254;7.988;2022-10-17T14:29:53;7.50;;;5.25;;
47531;SDS011;33273;52.254;7.988;2022-10-17T14:32:22;8.77;;;5.80;;
47531;SDS011;33273;52.254;7.988;2022-10-17T14:34:51;7.88;;;5.88;;
47531;SDS011;33273;52.254;7.988;2022-10-17T14:37:33;7.93;;;5.88;;
47531;SDS011;33273;52.254;7.988;2022-10-17T14:40:18;8.32;;;5.40;;
47531;SDS011;33273;52.254;7.988;2022-10-17T14:42:48;7.25;;;5.82;;
47531;SDS011;33273;52.254;7.988;2022-10-17T14:45:35;8.75;;;5.68;;
47531;SDS011;33273;52.254;7.988;2022-10-17T14:48:04;13.85;;;5.95;;
47531;SDS011;33273;52.254;7.988;2022-10-17T14:50:37;7.18;;;5.68;;
47531;SDS011;33273;52.254;7.988;2022-10-17T14:53:04;10.55;;;5.85;;
47531;SDS011;33273;52.254;7.988;2022-10-17T14:55:58;12.25;;;6.38;;
47531;SDS011;33273;52.254;7.988;2022-10-17T14:58:27;8.80;;;5.82;;
47531;SDS011;33273;52.254;7.988;2022-10-17T15:00:58;11.60;;;5.90;;
47531;SDS011;33273;52.254;7.988;2022-10-17T15:03:26;9.07;;;6.78;;
47531;SDS011;33273;52.254;7.988;2022-10-17T15:05:52;10.68;;;6.68;;
47531;SDS011;33273;52.254;7.988;2022-10-17T15:08:22;10.75;;;6.25;;
47531;SDS011;33273;52.254;7.988;2022-10-17T15:10:49;15.00;;;7.65;;
47531;SDS011;33273;52.254;7.988;2022-10-17T15:13:15;9.02;;;7.47;;
47531;SDS011;33273;52.254;7.988;2022-10-17T15:15:42;11.73;;;7.78;;
47531;SDS011;33273;52.254;7.988;2022-10-17T15:18:09;10.82;;;8.20;;
47531;SDS011;33273;52.254;7.988;2022-10-17T15:20:36;12.45;;;7.78;;
47531;SDS011;33273;52.254;7.988;2022-10-17T15:23:03;12.27;;;7.57;;
47531;SDS011;33273;52.254;7.988;2022-10-17T15:25:29;11.85;;;7.95;;
47531;SDS011;33273;52.254;7.988;2022-10-17T15:27:56;11.50;;;8.45;;
47531;SDS011;33273;52.254;7.988;2022-10-17T15:30:30;11.77;;;8.20;;
47531;SDS011;33273;52.254;7.988;2022-10-17T15:32:58;13.65;;;8.13;;
47531;SDS011;33273;52.254;7.988;2022-10-17T15:35:25;13.18;;;8.20;;
47531;SDS011;33273;52.254;7.988;2022-10-17T15:37:52;10.77;;;7.60;;
47531;SDS011;33273;52.254;7.988;2022-10-17T15:40:22;10.93;;;7.28;;
47531;SDS011;33273;52.254;7.988;2022-10-17T15:42:53;13.02;;;7.38;;
47531;SDS011;33273;52.254;7.988;2022-10-17T15:45:20;10.60;;;7.20;;
47531;SDS011;33273;52.254;7.988;2022-10-17T15:47:51;16.00;;;7.47;;
47531;SDS011;33273;52.254;7.988;2022-10-17T15:50:23;9.93;;;6.70;;
47531;SDS011;33273;52.254;7.988;2022-10-17T15:52:49;13.68;;;7.05;;
47531;SDS011;33273;52.254;7.988;2022-10-17T15:55:15;11.57;;;7.78;;
47531;SDS011;33273;52.254;7.988;2022-10-17T15:57:43;11.98;;;7.68;;
47531;SDS011;33273;52.254;7.988;2022-10-17T16:00:13;9.82;;;7.22;;
47531;SDS011;33273;52.254;7.988;2022-10-17T16:02:44;12.50;;;6.75;;
47531;SDS011;33273;52.254;7.988;2022-10-17T16:05:15;12.93;;;7.60;;
47531;SDS011;33273;52.254;7.988;2022-10-17T16:07:43;9.00;;;6.78;;
47531;SDS011;33273;52.254;7.988;2022-10-17T16:10:14;12.88;;;7.78;;
47531;SDS011;33273;52.254;7.988;2022-10-17T16:12:40;10.98;;;7.38;;
47531;SDS011;33273;52.254;7.988;2022-10-17T16:15:18;9.35;;;6.63;;
47531;SDS011;33273;52.254;7.988;2022-10-17T16:17:47;12.43;;;7.35;;
47531;SDS011;33273;52.254;7.988;2022-10-17T16:20:17;14.38;;;7.78;;
47531;SDS011;33273;52.254;7.988;2022-10-17T16:22:45;14.10;;;7.80;;
47531;SDS011;33273;52.254;7.988;2022-10-17T16:25:21;12.38;;;8.27;;
47531;SDS011;33273;52.254;7.988;2022-10-17T16:27:53;11.30;;;8.10;;
47531;SDS011;33273;52.254;7.988;2022-10-17T16:30:21;10.80;;;7.38;;
47531;SDS011;33273;52.254;7.988;2022-10-17T16:32:48;11.13;;;7.43;;
47531;SDS011;33273;52.254;7.988;2022-10-17T16:35:19;11.73;;;7.95;;
47531;SDS011;33273;52.254;7.988;2022-10-17T16:37:47;9.77;;;7.00;;
47531;SDS011;33273;52.254;7.988;2022-10-17T16:40:13;10.82;;;7.95;;
47531;SDS011;33273;52.254;7.988;2022-10-17T16:42:40;10.20;;;7.25;;
47531;SDS011;33273;52.254;7.988;2022-10-17T16:45:07;13.95;;;8.45;;
47531;SDS011;33273;52.254;7.988;2022-10-17T16:47:36;12.57;;;8.38;;
47531;SDS011;33273;52.254;7.988;2022-10-17T16:50:02;16.13;;;9.23;;
47531;SDS011;33273;52.254;7.988;2022-10-17T16:52:30;13.93;;;8.85;;
47531;SDS011;33273;52.254;7.988;2022-10-17T16:54:56;14.98;;;8.85;;
47531;SDS011;33273;52.254;7.988;2022-10-17T16:57:22;12.32;;;8.38;;
47531;SDS011;33273;52.254;7.988;2022-10-17T16:59:49;12.27;;;7.78;;
47531;SDS011;33273;52.254;7.988;2022-10-17T17:02:16;13.70;;;8.10;;
47531;SDS011;33273;52.254;7.988;2022-10-17T17:04:42;13.55;;;7.65;;
47531;SDS011;33273;52.254;7.988;2022-10-17T17:07:08;14.30;;;8.65;;
47531;SDS011;33273;52.254;7.988;2022-10-17T17:09:44;11.55;;;8.15;;
47531;SDS011;33273;52.254;7.988;2022-10-17T17:14:49;10.35;;;7.75;;
47531;SDS011;33273;52.254;7.988;2022-10-17T17:17:15;10.52;;;8.18;;
47531;SDS011;33273;52.254;7.988;2022-10-17T17:19:40;10.03;;;8.40;;
47531;SDS011;33273;52.254;7.988;2022-10-17T17:22:07;10.02;;;8.60;;
47531;SDS011;33273;52.254;7.988;2022-10-17T17:24:33;12.00;;;8.07;;
47531;SDS011;33273;52.254;7.988;2022-10-17T17:26:58;14.52;;;8.13;;
47531;SDS011;33273;52.254;7.988;2022-10-17T17:29:24;9.07;;;7.15;;
47531;SDS011;33273;52.254;7.988;2022-10-17T17:31:54;12.07;;;8.02;;
47531;SDS011;33273;52.254;7.988;2022-10-17T17:34:20;15.90;;;8.27;;
47531;SDS011;33273;52.254;7.988;2022-10-17T17:36:46;10.57;;;8.05;;
47531;SDS011;33273;52.254;7.988;2022-10-17T17:39:12;10.45;;;8.27;;
47531;SDS011;33273;52.254;7.988;2022-10-17T17:41:40;12.15;;;8.77;;
47531;SDS011;33273;52.254;7.988;2022-10-17T17:44:09;10.63;;;8.40;;
47531;SDS011;33273;52.254;7.988;2022-10-17T17:46:36;11.15;;;7.95;;
47531;SDS011;33273;52.254;7.988;2022-10-17T17:49:02;10.65;;;8.15;;
47531;SDS011;33273;52.254;7.988;2022-10-17T17:51:31;10.05;;;7.90;;
47531;SDS011;33273;52.254;7.988;2022-10-17T17:53:59;10.18;;;7.57;;
47531;SDS011;33273;52.254;7.988;2022-10-17T17:56:25;11.93;;;8.13;;
47531;SDS011;33273;52.254;7.988;2022-10-17T17:58:54;10.60;;;7.50;;
47531;SDS011;33273;52.254;7.988;2022-10-17T18:01:24;11.40;;;8.23;;
47531;SDS011;33273;52.254;7.988;2022-10-17T18:03:53;12.27;;;8.25;;
47531;SDS011;33273;52.254;7.988;2022-10-17T18:06:20;12.85;;;7.97;;
47531;SDS011;33273;52.254;7.988;2022-10-17T18:08:51;11.00;;;7.65;;
47531;SDS011;33273;52.254;7.988;2022-10-17T18:11:19;9.80;;;8.35;;